Time;durP1;ratioP1;P1;durP2;ratioP2;P2;SDS_P1;SDS_P2;PMS_P1;PMS_P2;Temp;Humidity;BMP_temperature;BMP_pressure;BME280_temperature;BME280_humidity;BME280_pressure;Samples;Min_cycle;Max_cycle;Signal;HPM_P1;HPM_P2
2022/07/03 00:00:39;;;;;;;2.47;0.90;;;16.00;99.90;;;;;;5008262;28;20501;-66
2022/07/03 00:03:05;;;;;;;6.25;0.90;;;15.90;99.90;;;;;;5010531;28;20025;-67
2022/07/03 00:05:30;;;;;;;4.93;0.90;;;16.00;99.90;;;;;;5010062;28;20034;-67
2022/07/03 00:07:57;;;;;;;2.72;0.65;;;15.90;99.90;;;;;;5008898;28;20378;-66
2022/07/03 00:10:22;;;;;;;4.45;0.63;;;15.80;99.90;;;;;;5009964;28;20028;-65
2022/07/03 00:12:48;;;;;;;6.70;0.93;;;15.80;99.90;;;;;;5007645;28;20390;-65
2022/07/03 00:15:14;;;;;;;1.80;0.63;;;15.70;99.90;;;;;;5010801;28;20072;-65
2022/07/03 00:17:39;;;;;;;2.83;0.70;;;15.60;99.90;;;;;;5008645;28;20080;-65
2022/07/03 00:20:06;;;;;;;4.95;0.70;;;15.50;99.90;;;;;;5004336;28;20371;-66
2022/07/03 00:22:36;;;;;;;3.40;0.88;;;15.40;99.90;;;;;;5009192;28;20056;-65
2022/07/03 00:25:05;;;;;;;5.15;0.52;;;15.30;99.90;;;;;;5009939;28;20496;-66
2022/07/03 00:27:33;;;;;;;1.88;0.60;;;15.20;99.90;;;;;;5010420;28;20062;-66
2022/07/03 00:30:00;;;;;;;3.90;0.90;;;15.20;99.90;;;;;;5003964;28;20026;-65
2022/07/03 00:32:27;;;;;;;2.55;0.90;;;15.10;99.90;;;;;;5009683;28;20508;-66
2022/07/03 00:34:54;;;;;;;3.15;0.80;;;15.10;99.90;;;;;;5008738;28;20105;-65
2022/07/03 00:37:21;;;;;;;2.25;0.50;;;15.00;99.90;;;;;;5007903;28;20481;-65
2022/07/03 00:39:50;;;;;;;2.63;0.70;;;14.90;99.90;;;;;;5008516;28;20042;-64
2022/07/03 00:42:17;;;;;;;1.90;0.60;;;15.00;99.90;;;;;;5008355;28;20456;-65
2022/07/03 00:44:50;;;;;;;1.23;0.60;;;15.00;99.90;;;;;;5007786;28;20149;-65
2022/07/03 00:47:18;;;;;;;3.70;0.52;;;14.90;99.90;;;;;;5010522;28;20068;-64
2022/07/03 00:49:47;;;;;;;4.15;0.90;;;14.90;99.90;;;;;;5008353;28;20029;-65
2022/07/03 00:52:15;;;;;;;2.88;0.63;;;14.90;99.90;;;;;;5009309;28;20022;-65
2022/07/03 00:54:51;;;;;;;5.50;0.80;;;14.80;99.90;;;;;;5007150;28;20026;-65
2022/07/03 00:57:17;;;;;;;3.25;0.60;;;14.70;99.90;;;;;;5004802;28;20355;-67
2022/07/03 00:59:43;;;;;;;2.38;0.77;;;14.60;99.90;;;;;;5008916;28;20045;-66
2022/07/03 01:02:19;;;;;;;3.65;0.57;;;14.50;99.90;;;;;;5008132;28;20080;-65
2022/07/03 01:05:08;;;;;;;3.47;0.70;;;14.50;99.90;;;;;;5008019;28;20045;-65
2022/07/03 01:07:48;;;;;;;3.53;1.02;;;14.40;99.90;;;;;;5005228;28;20029;-65
2022/07/03 01:10:37;;;;;;;3.10;0.60;;;14.40;99.90;;;;;;5009388;28;20037;-65
2022/07/03 01:13:23;;;;;;;4.30;0.80;;;14.30;99.90;;;;;;5000588;28;20069;-65
2022/07/03 01:16:16;;;;;;;2.45;0.50;;;14.20;99.90;;;;;;5003535;28;20021;-64
2022/07/03 01:18:51;;;;;;;6.65;0.75;;;14.10;99.90;;;;;;5007312;28;20064;-65
2022/07/03 01:21:34;;;;;;;1.65;0.50;;;14.10;99.90;;;;;;5008820;28;20497;-65
2022/07/03 01:24:12;;;;;;;2.83;0.47;;;14.00;99.90;;;;;;5004770;28;20133;-65
2022/07/03 01:26:40;;;;;;;2.67;0.60;;;13.90;99.90;;;;;;5006779;28;20057;-65
2022/07/03 01:29:18;;;;;;;1.85;0.82;;;13.70;99.90;;;;;;5008899;28;20375;-64
2022/07/03 01:31:47;;;;;;;2.25;1.15;;;13.70;99.90;;;;;;5007464;28;20084;-64
2022/07/03 01:34:16;;;;;;;2.15;0.85;;;13.70;99.90;;;;;;5008013;28;20036;-64
2022/07/03 01:36:46;;;;;;;2.22;0.60;;;13.80;99.90;;;;;;5005484;28;20497;-65
2022/07/03 01:39:15;;;;;;;2.40;0.75;;;13.70;99.90;;;;;;5009585;28;20030;-65
2022/07/03 01:41:44;;;;;;;0.63;0.50;;;13.80;99.90;;;;;;5007156;28;20083;-65
2022/07/03 01:44:13;;;;;;;2.97;0.70;;;13.90;99.90;;;;;;5009314;28;20042;-65
2022/07/03 01:46:45;;;;;;;4.82;1.08;;;13.80;99.90;;;;;;5005795;28;20508;-65
2022/07/03 01:49:14;;;;;;;2.20;0.95;;;13.70;99.90;;;;;;5008992;28;20112;-65
2022/07/03 01:51:42;;;;;;;1.02;0.50;;;13.60;99.90;;;;;;5006874;28;20026;-64
2022/07/03 01:54:10;;;;;;;2.17;0.60;;;13.50;99.90;;;;;;5008475;28;20112;-64
2022/07/03 01:56:35;;;;;;;2.45;0.60;;;13.50;99.90;;;;;;5006089;28;20026;-63
2022/07/03 01:59:02;;;;;;;1.98;0.50;;;13.40;99.90;;;;;;5008901;28;20391;-64
2022/07/03 02:01:43;;;;;;;2.83;0.50;;;13.40;99.90;;;;;;5007128;28;20018;-65
2022/07/03 02:04:21;;;;;;;3.05;0.40;;;13.30;99.90;;;;;;5007276;28;20528;-64
2022/07/03 02:07:25;;;;;;;1.00;0.30;;;13.30;99.90;;;;;;5006110;28;20120;-63
2022/07/03 02:10:06;;;;;;;1.13;0.50;;;13.20;99.90;;;;;;4996555;28;20042;-63
2022/07/03 02:12:57;;;;;;;2.80;0.47;;;13.20;99.90;;;;;;5006013;28;20034;-64
2022/07/03 02:15:33;;;;;;;0.77;0.50;;;13.10;99.90;;;;;;5005893;28;20026;-64
2022/07/03 02:18:26;;;;;;;2.70;0.50;;;13.00;99.90;;;;;;4997634;28;20021;-63
2022/07/03 02:21:03;;;;;;;2.40;0.32;;;13.00;99.90;;;;;;5004515;28;20030;-64
2022/07/03 02:23:32;;;;;;;2.30;0.30;;;13.00;99.90;;;;;;5007901;28;20042;-64
2022/07/03 02:26:02;;;;;;;3.83;0.52;;;12.90;99.90;;;;;;5007533;28;20589;-63
2022/07/03 02:29:01;;;;;;;2.65;0.40;;;12.80;99.90;;;;;;5003195;28;20439;-63
2022/07/03 02:31:27;;;;;;;2.70;0.40;;;12.80;99.90;;;;;;5005706;28;20033;-63
2022/07/03 02:33:58;;;;;;;0.47;0.30;;;12.70;99.90;;;;;;5002317;28;20053;-63
2022/07/03 02:36:28;;;;;;;4.07;0.40;;;12.60;99.90;;;;;;5007419;28;20117;-63
2022/07/03 02:38:57;;;;;;;2.67;0.40;;;12.60;99.90;;;;;;5007769;28;20723;-63
2022/07/03 02:41:45;;;;;;;1.45;0.38;;;12.60;99.90;;;;;;5006540;28;20029;-64
2022/07/03 02:44:17;;;;;;;1.55;0.45;;;12.60;99.90;;;;;;5008618;28;20042;-63
2022/07/03 02:47:11;;;;;;;1.13;0.35;;;12.50;99.90;;;;;;5005773;28;20026;-64
2022/07/03 02:49:50;;;;;;;1.27;0.50;;;12.50;99.90;;;;;;5006676;28;20506;-63
2022/07/03 02:52:34;;;;;;;3.22;1.25;;;12.50;99.90;;;;;;5008218;28;20052;-63
2022/07/03 02:55:07;;;;;;;0.98;0.30;;;12.50;99.90;;;;;;4998321;28;20328;-64
2022/07/03 02:57:40;;;;;;;5.47;0.63;;;12.50;99.90;;;;;;5005640;28;20109;-63
2022/07/03 03:00:09;;;;;;;2.65;0.45;;;12.50;99.90;;;;;;5002503;28;20026;-63
2022/07/03 03:02:46;;;;;;;1.35;0.30;;;12.50;99.90;;;;;;5006383;28;20037;-63
2022/07/03 03:05:14;;;;;;;1.48;0.50;;;12.60;99.90;;;;;;5009868;28;20053;-63
2022/07/03 03:07:52;;;;;;;1.92;0.40;;;12.60;99.90;;;;;;5009857;28;20034;-63
2022/07/03 03:10:19;;;;;;;6.68;0.60;;;12.40;99.90;;;;;;5017277;28;20026;-63
2022/07/03 03:12:51;;;;;;;1.20;0.30;;;12.40;99.90;;;;;;5006035;28;20111;-63
2022/07/03 03:15:21;;;;;;;2.28;0.45;;;12.30;99.90;;;;;;5005101;28;20018;-63
2022/07/03 03:17:55;;;;;;;0.70;0.40;;;12.30;99.90;;;;;;5008990;28;20026;-63
2022/07/03 03:20:27;;;;;;;0.75;0.50;;;12.30;99.90;;;;;;5006040;28;20022;-63
2022/07/03 03:23:23;;;;;;;2.03;0.40;;;12.20;99.90;;;;;;5008213;28;20133;-63
2022/07/03 03:25:52;;;;;;;2.67;0.38;;;12.10;99.90;;;;;;5010302;28;20049;-64
2022/07/03 03:28:18;;;;;;;2.15;0.40;;;12.10;99.90;;;;;;5012134;28;20382;-64
2022/07/03 03:30:44;;;;;;;3.95;0.60;;;12.10;99.90;;;;;;5009890;28;20030;-64
2022/07/03 03:33:10;;;;;;;2.92;0.50;;;12.10;99.90;;;;;;5011520;28;20042;-64
2022/07/03 03:35:37;;;;;;;2.40;0.98;;;12.10;99.90;;;;;;5007410;28;20505;-64
2022/07/03 03:38:03;;;;;;;2.35;0.40;;;12.00;99.90;;;;;;5012418;28;20030;-64
2022/07/03 03:40:29;;;;;;;1.75;0.30;;;12.00;99.90;;;;;;5011528;28;20039;-64
2022/07/03 03:42:54;;;;;;;1.08;0.20;;;12.00;99.90;;;;;;5009268;28;20042;-64
2022/07/03 03:45:20;;;;;;;5.15;0.38;;;12.00;99.90;;;;;;5011446;28;20030;-63
2022/07/03 03:47:46;;;;;;;2.28;0.30;;;12.00;99.90;;;;;;5010233;28;20026;-64
2022/07/03 03:50:11;;;;;;;3.05;0.50;;;11.90;99.90;;;;;;5011932;28;20123;-64
2022/07/03 03:52:37;;;;;;;1.77;0.40;;;11.90;99.90;;;;;;5010462;28;20113;-63
2022/07/03 03:55:03;;;;;;;1.30;0.30;;;11.90;99.90;;;;;;5011992;28;20386;-64
2022/07/03 03:57:29;;;;;;;3.75;0.55;;;11.90;99.90;;;;;;5007388;28;20038;-63
2022/07/03 03:59:56;;;;;;;3.15;0.43;;;11.90;99.90;;;;;;5007546;28;20436;-64
2022/07/03 04:02:22;;;;;;;1.42;0.40;;;11.90;99.90;;;;;;5010413;28;20494;-63
2022/07/03 04:04:47;;;;;;;1.98;0.30;;;11.80;99.90;;;;;;5009422;28;20096;-63
2022/07/03 04:07:13;;;;;;;2.97;0.57;;;11.70;99.90;;;;;;5010457;28;20022;-63
2022/07/03 04:09:39;;;;;;;2.80;0.68;;;11.70;99.90;;;;;;5009262;28;20421;-64
2022/07/03 04:12:05;;;;;;;1.33;0.40;;;11.70;99.90;;;;;;5013480;28;20030;-64
2022/07/03 04:14:31;;;;;;;1.85;0.32;;;11.70;99.90;;;;;;5011442;28;20026;-63
2022/07/03 04:16:56;;;;;;;2.05;0.40;;;11.60;99.90;;;;;;5008211;28;20018;-63
2022/07/03 04:19:22;;;;;;;0.35;0.20;;;11.60;99.90;;;;;;5011232;28;20073;-63
2022/07/03 04:21:49;;;;;;;2.53;0.28;;;11.60;99.90;;;;;;5009125;28;20022;-64
2022/07/03 04:24:15;;;;;;;3.38;0.30;;;11.60;99.90;;;;;;5011465;28;20092;-65
2022/07/03 04:26:40;;;;;;;3.50;0.40;;;11.60;99.90;;;;;;5008198;28;20026;-65
2022/07/03 04:29:06;;;;;;;3.72;1.65;;;11.60;99.90;;;;;;5011386;28;20121;-65
2022/07/03 04:31:32;;;;;;;2.63;0.30;;;11.60;99.90;;;;;;5009329;28;20033;-64
2022/07/03 04:33:57;;;;;;;1.52;0.20;;;11.70;99.90;;;;;;5007955;28;20406;-64
2022/07/03 04:36:23;;;;;;;2.13;0.43;;;11.70;99.90;;;;;;5011224;28;20033;-63
2022/07/03 04:38:49;;;;;;;1.85;0.40;;;11.70;99.90;;;;;;5009333;28;20026;-63
2022/07/03 04:41:14;;;;;;;1.60;0.32;;;11.70;99.90;;;;;;5010818;28;20025;-63
2022/07/03 04:43:40;;;;;;;4.95;0.68;;;11.80;99.90;;;;;;5006205;28;20034;-64
2022/07/03 04:46:05;;;;;;;0.73;0.13;;;11.80;99.90;;;;;;5006454;28;20057;-63
2022/07/03 04:48:32;;;;;;;1.98;0.40;;;11.80;99.90;;;;;;5011095;28;20049;-64
2022/07/03 04:50:58;;;;;;;2.10;0.30;;;11.90;99.90;;;;;;5007764;28;20025;-63
2022/07/03 04:53:24;;;;;;;0.73;0.20;;;11.90;99.90;;;;;;5009794;28;20056;-63
2022/07/03 04:55:50;;;;;;;2.47;0.55;;;11.90;99.90;;;;;;5005398;28;20030;-62
2022/07/03 04:58:17;;;;;;;3.22;0.43;;;11.90;99.90;;;;;;5010602;28;20122;-64
2022/07/03 05:00:43;;;;;;;2.08;0.50;;;11.90;99.90;;;;;;5003594;28;20604;-64
2022/07/03 05:03:09;;;;;;;2.47;0.40;;;12.00;99.90;;;;;;5009569;28;20057;-64
2022/07/03 05:05:35;;;;;;;3.72;1.17;;;12.00;99.90;;;;;;5007140;28;20061;-65
2022/07/03 05:08:00;;;;;;;1.80;0.75;;;12.10;99.90;;;;;;5009535;28;20482;-65
2022/07/03 05:10:27;;;;;;;0.60;0.22;;;12.10;99.90;;;;;;5010570;28;20087;-64
2022/07/03 05:12:53;;;;;;;1.73;0.38;;;12.20;99.90;;;;;;5008315;28;20073;-63
2022/07/03 05:15:19;;;;;;;4.10;0.45;;;12.30;99.90;;;;;;5008681;28;20092;-64
2022/07/03 05:17:45;;;;;;;5.97;1.00;;;12.30;99.90;;;;;;5005268;28;20446;-65
2022/07/03 05:20:29;;;;;;;3.05;0.43;;;12.40;99.90;;;;;;5009785;28;20417;-63
2022/07/03 05:23:00;;;;;;;2.45;0.50;;;12.50;99.90;;;;;;5008153;28;20485;-62
2022/07/03 05:25:28;;;;;;;2.53;0.40;;;12.50;99.90;;;;;;5002748;28;20048;-63
2022/07/03 05:27:53;;;;;;;0.47;0.20;;;12.50;99.90;;;;;;5008147;28;20029;-65
2022/07/03 05:30:21;;;;;;;1.27;0.43;;;12.60;99.90;;;;;;5008969;28;20391;-65
2022/07/03 05:32:46;;;;;;;1.75;0.47;;;12.60;99.90;;;;;;5007293;28;20057;-64
2022/07/03 05:35:12;;;;;;;1.52;0.30;;;12.70;99.90;;;;;;5009411;28;20034;-65
2022/07/03 05:37:38;;;;;;;3.17;0.45;;;12.80;99.90;;;;;;5008414;28;20022;-65
2022/07/03 05:40:05;;;;;;;5.63;0.50;;;12.90;99.90;;;;;;5010366;28;20038;-64
2022/07/03 05:42:30;;;;;;;3.53;0.60;;;13.10;99.90;;;;;;5006683;28;20030;-64
2022/07/03 05:44:56;;;;;;;3.38;0.95;;;13.20;99.90;;;;;;5007651;28;20542;-65
2022/07/03 05:47:22;;;;;;;3.50;0.50;;;13.30;99.90;;;;;;5005581;28;20105;-65
2022/07/03 05:49:47;;;;;;;4.05;0.52;;;13.30;99.90;;;;;;5005768;28;20547;-66
2022/07/03 05:52:13;;;;;;;3.22;0.60;;;13.30;99.90;;;;;;5008322;28;20049;-65
2022/07/03 05:54:39;;;;;;;4.30;0.52;;;13.30;99.90;;;;;;5006560;28;20038;-64
2022/07/03 05:57:05;;;;;;;2.85;0.65;;;13.40;99.90;;;;;;5005464;28;20022;-64
2022/07/03 05:59:31;;;;;;;5.53;0.60;;;13.60;99.90;;;;;;5003561;28;20026;-64
2022/07/03 06:01:56;;;;;;;3.55;0.55;;;13.60;99.90;;;;;;5006989;28;20030;-65
2022/07/03 06:04:22;;;;;;;6.63;0.70;;;13.80;99.90;;;;;;5007698;28;20040;-64
2022/07/03 06:06:48;;;;;;;4.47;0.50;;;13.90;99.90;;;;;;5007121;28;20029;-65
2022/07/03 06:09:13;;;;;;;1.48;0.40;;;14.00;99.90;;;;;;5006770;28;20469;-65
2022/07/03 06:11:39;;;;;;;4.15;0.55;;;14.10;99.90;;;;;;4998554;28;20527;-63
2022/07/03 06:14:04;;;;;;;3.42;0.45;;;14.20;99.90;;;;;;4999748;28;20037;-64
2022/07/03 06:16:30;;;;;;;4.22;0.47;;;14.20;99.90;;;;;;5008795;28;20041;-64
2022/07/03 06:18:56;;;;;;;2.83;0.50;;;14.30;99.90;;;;;;5002801;28;20073;-64
2022/07/03 06:21:21;;;;;;;5.13;1.02;;;14.40;99.90;;;;;;5009132;28;20072;-65
2022/07/03 06:23:47;;;;;;;2.97;0.40;;;14.50;99.90;;;;;;5007122;28;20072;-64
2022/07/03 06:26:16;;;;;;;4.57;0.57;;;14.50;99.90;;;;;;5007727;28;20025;-65
2022/07/03 06:28:42;;;;;;;4.65;0.50;;;14.60;99.90;;;;;;4999604;28;20113;-67
2022/07/03 06:31:08;;;;;;;11.32;0.55;;;14.80;99.90;;;;;;5006837;28;20030;-65
2022/07/03 06:33:34;;;;;;;6.90;0.70;;;14.90;99.90;;;;;;5002690;28;20483;-64
2022/07/03 06:36:00;;;;;;;4.70;0.60;;;15.10;99.90;;;;;;5008545;28;20032;-64
2022/07/03 06:38:25;;;;;;;3.97;0.55;;;15.30;99.90;;;;;;5011311;28;20139;-65
2022/07/03 06:40:51;;;;;;;4.57;0.50;;;15.60;99.90;;;;;;5009221;28;20032;-64
2022/07/03 06:43:17;;;;;;;4.47;0.40;;;15.70;99.90;;;;;;5007882;28;20117;-65
2022/07/03 06:45:42;;;;;;;4.78;0.70;;;15.80;99.90;;;;;;5003224;28;20133;-64
2022/07/03 06:48:08;;;;;;;3.00;0.52;;;16.00;99.90;;;;;;5011217;28;20026;-63
2022/07/03 06:50:34;;;;;;;3.00;0.55;;;16.20;99.90;;;;;;5008464;28;20026;-63
2022/07/03 06:53:00;;;;;;;4.28;0.77;;;16.10;99.90;;;;;;5009871;28;20041;-63
2022/07/03 06:55:26;;;;;;;2.53;0.47;;;16.20;99.90;;;;;;5007094;28;20029;-65
2022/07/03 06:57:52;;;;;;;3.00;0.40;;;16.40;99.90;;;;;;5011002;28;20374;-64
2022/07/03 07:00:18;;;;;;;7.07;1.00;;;16.30;99.90;;;;;;5009278;28;20022;-65
2022/07/03 07:02:43;;;;;;;2.72;0.60;;;16.40;99.90;;;;;;5008761;28;20486;-65
2022/07/03 07:05:10;;;;;;;4.55;0.93;;;16.60;99.90;;;;;;5002153;28;20089;-65
2022/07/03 07:07:36;;;;;;;5.57;0.52;;;16.70;99.90;;;;;;5010455;28;20033;-65
2022/07/03 07:10:02;;;;;;;1.80;0.43;;;16.80;99.90;;;;;;5011378;28;20540;-65
2022/07/03 07:12:27;;;;;;;2.30;0.30;;;16.90;99.90;;;;;;5007169;28;20022;-65
2022/07/03 07:14:53;;;;;;;3.05;0.45;;;17.10;99.90;;;;;;5005415;28;20096;-65
2022/07/03 07:17:19;;;;;;;3.13;0.40;;;17.20;99.90;;;;;;5008825;28;20382;-65
2022/07/03 07:19:44;;;;;;;0.95;0.38;;;17.30;99.90;;;;;;5003012;28;20038;-65
2022/07/03 07:22:10;;;;;;;3.35;0.60;;;17.50;99.90;;;;;;5011522;28;20041;-65
2022/07/03 07:24:35;;;;;;;2.88;0.52;;;17.50;99.90;;;;;;5009618;28;20030;-65
2022/07/03 07:27:01;;;;;;;2.33;0.38;;;17.80;99.90;;;;;;5004733;28;20087;-66
2022/07/03 07:29:27;;;;;;;2.70;0.50;;;17.90;99.90;;;;;;5008296;28;20029;-65
2022/07/03 07:31:53;;;;;;;3.03;0.60;;;18.00;99.90;;;;;;5007958;28;20034;-65
2022/07/03 07:34:19;;;;;;;1.90;0.40;;;17.90;99.90;;;;;;5003883;28;20034;-66
2022/07/03 07:36:45;;;;;;;0.93;0.30;;;17.90;99.90;;;;;;5003196;28;20153;-65
2022/07/03 07:39:10;;;;;;;2.42;0.57;;;18.00;99.90;;;;;;5010501;28;20120;-64
2022/07/03 07:41:38;;;;;;;2.90;0.60;;;18.00;99.90;;;;;;4999464;28;20521;-64
2022/07/03 07:44:04;;;;;;;2.58;0.50;;;18.10;99.90;;;;;;5008450;28;20441;-65
2022/07/03 07:46:30;;;;;;;1.88;0.68;;;18.10;99.90;;;;;;5010858;28;20028;-64
2022/07/03 07:48:56;;;;;;;2.38;0.30;;;18.30;99.90;;;;;;5007248;28;20026;-65
2022/07/03 07:51:21;;;;;;;3.55;0.45;;;18.00;99.90;;;;;;5007008;28;20033;-63
2022/07/03 07:53:49;;;;;;;2.97;0.30;;;17.90;99.90;;;;;;5007867;28;20030;-64
2022/07/03 07:56:14;;;;;;;1.80;0.60;;;17.90;99.90;;;;;;5005144;28;20038;-63
2022/07/03 07:58:40;;;;;;;3.55;0.50;;;17.80;99.90;;;;;;5001945;28;20038;-64
2022/07/03 08:06:34;;;;;;;2.03;0.30;;;18.10;99.90;;;;;;5009086;28;20540;-65
2022/07/03 08:08:59;;;;;;;4.30;0.50;;;17.90;99.90;;;;;;5006469;28;20034;-64
2022/07/03 08:11:25;;;;;;;5.43;0.55;;;17.70;99.90;;;;;;5010103;28;20028;-65
2022/07/03 08:13:51;;;;;;;1.40;0.40;;;18.20;99.90;;;;;;5008819;28;20036;-65
2022/07/03 08:16:17;;;;;;;3.55;0.52;;;18.30;99.90;;;;;;5010402;28;20022;-65
2022/07/03 08:18:43;;;;;;;1.75;0.50;;;18.20;99.90;;;;;;5003712;28;20037;-66
2022/07/03 08:21:08;;;;;;;2.92;0.50;;;18.30;99.90;;;;;;5010899;28;20022;-65
2022/07/03 08:23:34;;;;;;;1.90;0.40;;;18.60;99.90;;;;;;5003551;28;20030;-65
2022/07/03 08:25:59;;;;;;;1.58;0.32;;;18.40;99.90;;;;;;5004973;28;20037;-65
2022/07/03 08:28:26;;;;;;;2.47;0.50;;;18.30;99.90;;;;;;5009306;28;20414;-66
2022/07/03 08:30:52;;;;;;;4.18;0.30;;;18.30;99.90;;;;;;5007614;28;20084;-66
2022/07/03 08:33:18;;;;;;;1.75;0.40;;;18.20;99.90;;;;;;5008255;28;20073;-65
2022/07/03 08:35:44;;;;;;;3.22;0.55;;;18.10;99.90;;;;;;5001976;28;20493;-65
2022/07/03 08:38:09;;;;;;;2.15;0.40;;;17.90;99.90;;;;;;5002095;28;20518;-65
2022/07/03 08:40:36;;;;;;;3.88;1.00;;;17.80;99.90;;;;;;5004500;28;20037;-66
2022/07/03 08:43:03;;;;;;;5.20;0.63;;;17.90;99.90;;;;;;5000150;28;20112;-65
2022/07/03 08:45:30;;;;;;;3.58;0.57;;;18.00;99.90;;;;;;5009753;28;20430;-65
2022/07/03 08:47:58;;;;;;;3.33;0.40;;;18.00;99.90;;;;;;5001241;28;20030;-67
2022/07/03 08:50:24;;;;;;;2.90;0.85;;;18.00;99.90;;;;;;5002001;28;20026;-64
2022/07/03 08:52:51;;;;;;;3.15;0.52;;;18.00;99.90;;;;;;5000535;28;20125;-64
2022/07/03 08:55:18;;;;;;;2.03;0.60;;;18.00;99.90;;;;;;5005557;28;20088;-64
2022/07/03 08:57:46;;;;;;;3.00;0.40;;;18.10;99.90;;;;;;4997736;28;20441;-64
2022/07/03 09:00:18;;;;;;;0.82;0.30;;;18.20;99.90;;;;;;5004416;28;20039;-64
2022/07/03 09:02:44;;;;;;;;;;;18.40;99.90;;;;;;5004797;28;20548;-63
2022/07/03 09:05:15;;;;;;;1.23;0.30;;;18.70;99.90;;;;;;5000877;28;19926;-63
2022/07/03 09:07:42;;;;;;;3.33;0.60;;;18.50;99.90;;;;;;5006429;28;20053;-63
2022/07/03 09:10:10;;;;;;;1.08;0.40;;;18.90;99.90;;;;;;5010064;28;20514;-62
2022/07/03 09:12:36;;;;;;;4.05;0.30;;;18.70;99.90;;;;;;5008060;28;20080;-63
2022/07/03 09:15:07;;;;;;;3.50;0.60;;;18.90;99.90;;;;;;5009185;28;20119;-62
2022/07/03 09:17:33;;;;;;;3.63;0.63;;;18.60;99.90;;;;;;5006077;28;20018;-64
2022/07/03 09:20:07;;;;;;;2.95;0.98;;;18.90;99.90;;;;;;5067392;28;20392;-63
2022/07/03 09:22:36;;;;;;;5.25;0.43;;;19.30;99.90;;;;;;5047452;28;20052;-63
2022/07/03 09:25:11;;;;;;;4.13;0.60;;;19.10;99.90;;;;;;5045232;28;20103;-65
2022/07/03 09:27:48;;;;;;;2.10;0.70;;;18.80;99.90;;;;;;5048732;28;20435;-64
2022/07/03 09:30:13;;;;;;;3.38;0.85;;;18.90;99.90;;;;;;5049345;28;20470;-65
2022/07/03 09:32:44;;;;;;;2.95;0.40;;;18.90;99.90;;;;;;5053129;28;20032;-64
2022/07/03 09:35:19;;;;;;;4.00;0.50;;;19.10;99.90;;;;;;5045766;28;20026;-64
2022/07/03 09:38:02;;;;;;;3.33;0.50;;;19.20;99.90;;;;;;5050040;28;20056;-65
2022/07/03 09:40:51;;;;;;;1.10;0.40;;;19.30;99.90;;;;;;5046498;28;20029;-63
2022/07/03 09:43:25;;;;;;;1.38;0.60;;;19.60;99.90;;;;;;5044614;28;20029;-64
2022/07/03 09:45:51;;;;;;;2.70;0.30;;;19.70;99.90;;;;;;5052045;28;20046;-65
2022/07/03 09:48:33;;;;;;;4.57;0.65;;;20.00;99.90;;;;;;5045860;28;20033;-64
2022/07/03 09:51:28;;;;;;;;;;;20.10;99.90;;;;;;5034408;28;20360;-64
2022/07/03 09:53:56;;;;;;;3.95;0.50;;;20.40;99.90;;;;;;5049159;28;19915;-64
2022/07/03 09:56:34;;;;;;;2.67;0.60;;;20.40;99.90;;;;;;5050906;28;20029;-58
2022/07/03 09:59:02;;;;;;;1.67;0.50;;;20.20;99.90;;;;;;5047826;28;20556;-65
2022/07/03 10:01:28;;;;;;;3.47;0.68;;;19.80;99.90;;;;;;5051106;28;20358;-65
2022/07/03 10:04:07;;;;;;;1.38;0.40;;;19.50;99.90;;;;;;5049243;28;20033;-65
2022/07/03 10:06:52;;;;;;;5.50;0.75;;;19.40;99.90;;;;;;5046706;28;20108;-65
2022/07/03 10:09:20;;;;;;;1.80;0.40;;;19.60;99.90;;;;;;5045727;28;20132;-65
2022/07/03 10:11:47;;;;;;;1.52;0.45;;;19.80;99.90;;;;;;5054858;28;20108;-65
2022/07/03 10:14:18;;;;;;;2.50;0.50;;;20.00;99.90;;;;;;5047590;28;20029;-65
2022/07/03 10:16:44;;;;;;;2.55;0.60;;;20.20;99.90;;;;;;5046770;28;20021;-64
2022/07/03 10:19:23;;;;;;;3.10;0.43;;;20.30;99.90;;;;;;5053503;28;20067;-64
2022/07/03 10:22:02;;;;;;;2.05;0.70;;;20.60;99.90;;;;;;5042032;28;20021;-64
2022/07/03 10:24:30;;;;;;;4.07;0.73;;;20.50;99.90;;;;;;5046126;28;20511;-64
2022/07/03 10:26:57;;;;;;;4.82;0.90;;;20.00;99.90;;;;;;5048102;28;20607;-64
2022/07/03 10:29:25;;;;;;;3.92;1.58;;;19.50;99.90;;;;;;5047735;28;20029;-65
2022/07/03 10:31:51;;;;;;;3.65;0.73;;;19.20;99.90;;;;;;5029224;28;20427;-65
2022/07/03 10:34:21;;;;;;;2.90;0.70;;;19.00;99.90;;;;;;5037415;28;20124;-66
2022/07/03 10:36:51;;;;;;;3.40;0.93;;;19.00;99.90;;;;;;5030985;28;20021;-64
2022/07/03 10:39:37;;;;;;;2.97;0.98;;;19.00;99.90;;;;;;5031584;28;20040;-65
2022/07/03 10:45:12;;;;;;;5.10;0.70;;;18.80;99.90;;;;;;5042450;28;20394;-63
2022/07/03 10:47:41;;;;;;;5.78;0.50;;;18.70;99.90;;;;;;5029029;28;20064;-64
2022/07/03 10:50:12;;;;;;;2.67;0.95;;;18.70;99.90;;;;;;5029918;28;20040;-65
2022/07/03 10:52:39;;;;;;;4.88;0.60;;;19.20;99.90;;;;;;5027944;28;20037;-63
2022/07/03 10:55:06;;;;;;;4.95;0.98;;;19.90;99.90;;;;;;5037390;28;20040;-65
2022/07/03 10:57:33;;;;;;;1.92;0.50;;;20.00;99.90;;;;;;5031784;28;20478;-65
2022/07/03 11:00:00;;;;;;;1.92;0.30;;;20.00;99.90;;;;;;5033751;28;20465;-65
2022/07/03 11:02:32;;;;;;;5.28;0.50;;;19.80;99.90;;;;;;5031529;28;20029;-65
2022/07/03 11:05:01;;;;;;;4.18;0.38;;;19.60;99.90;;;;;;5034388;28;20036;-64
2022/07/03 11:07:34;;;;;;;2.50;0.50;;;19.70;99.90;;;;;;5033993;28;20508;-65
2022/07/03 11:10:15;;;;;;;1.90;0.43;;;20.10;99.90;;;;;;5035237;28;20029;-65
2022/07/03 11:13:00;;;;;;;6.18;1.00;;;20.40;99.90;;;;;;5026984;28;20037;-64
2022/07/03 11:15:37;;;;;;;2.22;0.77;;;21.00;99.90;;;;;;5037013;28;20365;-65
2022/07/03 11:18:14;;;;;;;2.97;0.50;;;20.60;99.90;;;;;;5034074;28;20458;-65
2022/07/03 11:20:43;;;;;;;2.70;0.40;;;20.40;99.90;;;;;;5028050;28;20527;-66
2022/07/03 11:23:26;;;;;;;2.58;0.47;;;21.00;99.90;;;;;;5032128;28;20133;-65
2022/07/03 11:25:54;;;;;;;4.05;0.60;;;21.70;99.90;;;;;;5028062;28;20048;-66
2022/07/03 11:28:32;;;;;;;2.13;0.35;;;21.20;99.90;;;;;;5037207;28;20024;-66
2022/07/03 11:31:19;;;;;;;2.83;0.47;;;20.60;99.90;;;;;;5033662;28;20036;-65
2022/07/03 11:33:46;;;;;;;2.55;0.52;;;20.20;99.90;;;;;;5037032;28;20093;-64
2022/07/03 11:36:17;;;;;;;4.20;0.63;;;20.60;99.90;;;;;;5038911;28;20104;-65
2022/07/03 11:38:46;;;;;;;4.97;0.70;;;21.50;99.90;;;;;;5036191;28;20042;-65
2022/07/03 11:41:16;;;;;;;5.50;0.93;;;22.00;99.90;;;;;;5032083;28;20032;-66
2022/07/03 11:43:49;;;;;;;5.65;1.17;;;22.80;99.90;;;;;;5037540;28;20033;-66
2022/07/03 11:46:19;;;;;;;2.75;0.60;;;23.40;99.90;;;;;;5044274;28;20036;-65
2022/07/03 11:48:45;;;;;;;3.92;0.57;;;23.20;99.90;;;;;;5028870;28;20083;-66
2022/07/03 11:51:11;;;;;;;5.22;1.00;;;22.60;99.90;;;;;;5022606;28;20128;-65
2022/07/03 11:53:38;;;;;;;8.57;0.70;;;22.50;99.90;;;;;;5035857;28;20072;-65
2022/07/03 11:56:11;;;;;;;1.92;0.57;;;22.10;99.90;;;;;;5032182;28;20057;-56
2022/07/03 11:58:51;;;;;;;5.43;0.70;;;22.20;99.90;;;;;;5035060;28;20041;-66
2022/07/03 12:01:26;;;;;;;5.05;0.60;;;22.00;99.90;;;;;;5033599;28;20033;-64
2022/07/03 12:04:04;;;;;;;3.28;0.60;;;21.60;99.90;;;;;;5029324;28;20125;-65
2022/07/03 12:06:49;;;;;;;5.88;0.95;;;20.90;99.90;;;;;;5037807;28;20063;-65
2022/07/03 12:09:20;;;;;;;3.83;0.73;;;20.50;99.90;;;;;;5034238;28;20065;-64
2022/07/03 12:12:04;;;;;;;7.35;0.90;;;20.40;99.90;;;;;;5024778;28;20044;-67
2022/07/03 12:14:50;;;;;;;2.75;0.50;;;20.90;99.90;;;;;;5032716;28;20017;-64
2022/07/03 12:17:26;;;;;;;5.35;0.40;;;21.30;99.90;;;;;;5027875;28;20045;-65
2022/07/03 12:19:54;;;;;;;3.30;0.50;;;22.00;99.90;;;;;;5027261;28;20041;-66
2022/07/03 12:22:31;;;;;;;3.67;1.00;;;22.70;99.90;;;;;;5033693;28;20095;-63
2022/07/03 12:25:00;;;;;;;6.65;0.73;;;22.70;99.90;;;;;;5030395;28;20037;-64
2022/07/03 12:27:27;;;;;;;3.03;0.60;;;22.70;99.90;;;;;;5027365;28;20036;-64
2022/07/03 12:29:54;;;;;;;4.22;0.40;;;22.50;99.90;;;;;;5029849;28;20021;-65
2022/07/03 12:32:20;;;;;;;8.77;0.65;;;22.90;99.90;;;;;;5031267;28;20404;-64
2022/07/03 12:34:46;;;;;;;5.13;0.80;;;22.50;99.90;;;;;;5038957;28;20111;-64
2022/07/03 12:37:12;;;;;;;4.82;0.60;;;22.30;99.90;;;;;;5029815;28;20030;-64
2022/07/03 12:39:48;;;;;;;6.28;0.65;;;21.90;99.90;;;;;;5033681;28;20033;-63
2022/07/03 12:42:21;;;;;;;4.50;0.98;;;21.90;99.90;;;;;;5036095;28;20103;-64
2022/07/03 12:44:59;;;;;;;4.32;0.90;;;22.70;99.90;;;;;;5033339;28;20025;-65
2022/07/03 12:47:27;;;;;;;1.20;0.60;;;23.10;99.90;;;;;;5031304;28;20377;-64
2022/07/03 12:50:00;;;;;;;5.25;0.73;;;22.20;99.90;;;;;;5034084;28;20465;-64
2022/07/03 12:52:27;;;;;;;5.57;0.90;;;21.70;99.90;;;;;;5023044;28;20034;-64
2022/07/03 12:54:53;;;;;;;4.80;0.60;;;21.60;99.90;;;;;;5034077;28;20032;-64
2022/07/03 13:00:16;;;;;;;2.28;0.68;;;21.50;99.90;;;;;;5027972;28;20456;-65
2022/07/03 13:02:43;;;;;;;2.47;0.38;;;22.20;99.90;;;;;;5019280;28;20060;-64
2022/07/03 13:05:17;;;;;;;4.95;0.80;;;22.50;99.90;;;;;;5029464;28;20044;-64
2022/07/03 13:07:48;;;;;;;6.25;0.70;;;22.80;99.90;;;;;;5029179;28;20029;-64
2022/07/03 13:10:15;;;;;;;1.73;0.70;;;23.00;99.90;;;;;;5034211;28;20057;-63
2022/07/03 13:12:58;;;;;;;5.00;0.80;;;23.20;99.90;;;;;;5031127;28;20036;-64